Terminal Aerodrome Forecast
Issued by NWS

Home | Current Version | Previous Version | Text Only | Print | Product List | Glossary On
Versions: 1 2 3 4 5 6 7 8 9 10 11 12 13 14 15 16 17 18 19 20
000
FTUS43 KICT 011125
TAFHUT
TAF
KHUT 011125Z 0112/0212 VRB03KT 6SM BR OVC009
      TEMPO 0112/0115 4SM BR OVC006
     FM011600 34005KT P6SM SCT020 BKN150
     FM012300 01005KT P6SM SCT150=

USA.gov is the U.S. government's official web portal to all federal, state and local government web resources and services.